createdAt,value
2022-09-27T00:00:43.030Z,6.23
2022-09-27T00:03:27.189Z,6.23
2022-09-27T00:06:15.024Z,6.20
2022-09-27T00:09:01.028Z,6.57
2022-09-27T00:11:45.585Z,5.90
2022-09-27T00:14:29.801Z,6.43
2022-09-27T00:17:13.723Z,6.70
2022-09-27T00:20:00.163Z,5.87
2022-09-27T00:22:44.071Z,6.17
2022-09-27T00:25:29.230Z,6.50
2022-09-27T00:28:14.302Z,6.13
2022-09-27T00:30:59.326Z,6.80
2022-09-27T00:33:43.270Z,6.40
2022-09-27T00:36:28.405Z,6.50
2022-09-27T00:39:12.681Z,6.73
2022-09-27T00:41:58.067Z,6.57
2022-09-27T00:45:10.331Z,6.10
2022-09-27T00:47:59.056Z,6.70
2022-09-27T00:50:46.994Z,6.27
2022-09-27T00:53:35.347Z,6.17
2022-09-27T00:56:23.987Z,6.57
2022-09-27T00:59:15.669Z,6.83
2022-09-27T01:01:59.972Z,6.03
2022-09-27T01:04:45.947Z,6.50
2022-09-27T01:07:29.972Z,6.33
2022-09-27T01:10:14.560Z,7.17
2022-09-27T01:13:06.886Z,6.43
2022-09-27T01:16:00.808Z,6.73
2022-09-27T01:18:58.918Z,6.50
2022-09-27T01:21:49.321Z,6.70
2022-09-27T01:24:58.386Z,6.70
2022-09-27T01:28:12.956Z,6.87
2022-09-27T01:31:06.265Z,6.90
2022-09-27T01:34:02.355Z,7.10
2022-09-27T01:36:54.435Z,6.73
2022-09-27T01:39:48.055Z,6.60
2022-09-27T01:43:05.922Z,6.47
2022-09-27T01:46:01.003Z,6.20
2022-09-27T01:49:09.692Z,6.60
2022-09-27T01:51:57.529Z,6.37
2022-09-27T01:54:46.171Z,6.20
2022-09-27T01:57:38.276Z,7.00
2022-09-27T02:00:25.309Z,6.60
2022-09-27T02:03:17.061Z,6.70
2022-09-27T02:06:39.403Z,6.97
2022-09-27T02:09:38.185Z,6.13
2022-09-27T02:12:41.687Z,6.73
2022-09-27T02:15:35.291Z,6.57
2022-09-27T02:18:53.255Z,6.67
2022-09-27T02:21:46.760Z,6.47
2022-09-27T02:24:37.416Z,7.37
2022-09-27T02:27:28.140Z,6.53
2022-09-27T02:30:16.107Z,7.10
2022-09-27T02:33:04.257Z,6.70
2022-09-27T02:35:51.672Z,6.67
2022-09-27T02:38:36.288Z,6.83
2022-09-27T02:41:23.845Z,6.93
2022-09-27T02:44:13.320Z,6.70
2022-09-27T02:47:21.286Z,6.30
2022-09-27T02:50:26.308Z,6.70
2022-09-27T02:53:24.923Z,7.03
2022-09-27T02:56:27.287Z,6.20
2022-09-27T02:59:35.699Z,7.80
2022-09-27T03:02:40.434Z,7.30
2022-09-27T03:05:48.369Z,7.57
2022-09-27T03:08:35.842Z,7.43
2022-09-27T03:11:20.738Z,8.10
2022-09-27T03:14:09.299Z,8.02
2022-09-27T03:17:00.314Z,8.20
2022-09-27T03:20:03.493Z,8.47
2022-09-27T03:23:08.378Z,9.27
2022-09-27T03:25:54.795Z,9.23
2022-09-27T03:28:39.634Z,8.90
2022-09-27T03:31:23.981Z,8.52
2022-09-27T03:34:40.239Z,9.67
2022-09-27T03:37:24.947Z,9.37
2022-09-27T03:40:10.935Z,9.23
2022-09-27T03:42:57.001Z,9.53
2022-09-27T03:45:41.563Z,10.03
2022-09-27T03:48:28.494Z,10.20
2022-09-27T03:51:13.134Z,10.30
2022-09-27T03:53:57.941Z,10.93
2022-09-27T03:56:42.258Z,9.97
2022-09-27T03:59:28.003Z,9.50
2022-09-27T04:02:30.614Z,9.60
2022-09-27T04:05:53.039Z,9.60
2022-09-27T04:08:43.782Z,9.48
2022-09-27T04:11:28.132Z,9.80
2022-09-27T04:14:13.335Z,11.40
2022-09-27T04:17:18.600Z,11.63
2022-09-27T04:20:28.621Z,11.50
2022-09-27T04:23:13.802Z,10.57
2022-09-27T04:26:06.900Z,9.53
2022-09-27T04:29:10.346Z,10.47
2022-09-27T04:31:58.220Z,9.45
2022-09-27T04:35:20.855Z,8.95
2022-09-27T04:38:05.569Z,8.07
2022-09-27T04:40:50.703Z,8.60
2022-09-27T04:43:35.359Z,9.30
2022-09-27T04:46:21.433Z,9.02
2022-09-27T04:49:05.637Z,9.10
2022-09-27T04:51:54.257Z,9.85
2022-09-27T04:54:39.779Z,8.98
2022-09-27T04:57:28.353Z,9.13
2022-09-27T05:00:13.925Z,9.45
2022-09-27T05:02:59.322Z,8.90
2022-09-27T05:06:15.825Z,8.73
2022-09-27T05:09:02.130Z,9.25
2022-09-27T05:11:48.290Z,8.20
2022-09-27T05:14:50.340Z,8.90
2022-09-27T05:17:49.033Z,8.77
2022-09-27T05:21:08.069Z,9.68
2022-09-27T05:23:57.519Z,8.77
2022-09-27T05:26:43.117Z,9.50
2022-09-27T05:29:27.132Z,8.38
2022-09-27T05:32:25.077Z,9.00
2022-09-27T05:35:22.802Z,8.55
2022-09-27T05:38:06.644Z,8.63
2022-09-27T05:40:53.153Z,7.70
2022-09-27T05:43:38.723Z,7.07
2022-09-27T05:46:22.780Z,7.05
2022-09-27T05:49:06.687Z,7.30
2022-09-27T05:51:50.585Z,7.82
2022-09-27T05:54:34.887Z,6.40
2022-09-27T05:57:18.999Z,8.95
2022-09-27T06:00:09.440Z,6.75
2022-09-27T06:02:57.868Z,6.20
2022-09-27T06:06:20.498Z,5.80
2022-09-27T06:09:12.476Z,6.28
2022-09-27T06:11:56.994Z,5.70
2022-09-27T06:14:42.835Z,5.45
2022-09-27T06:17:35.369Z,4.85
2022-09-27T06:20:25.608Z,5.00
2022-09-27T06:23:11.593Z,5.18
2022-09-27T06:25:55.690Z,5.47
2022-09-27T06:28:47.868Z,5.28
2022-09-27T06:31:32.330Z,5.20
2022-09-27T06:34:28.303Z,4.90
2022-09-27T06:37:12.550Z,5.28
2022-09-27T06:39:56.575Z,4.85
2022-09-27T06:43:04.341Z,5.10
2022-09-27T06:46:19.527Z,4.90
2022-09-27T06:49:33.837Z,5.07
2022-09-27T06:52:17.714Z,4.70
2022-09-27T06:55:01.676Z,5.40
2022-09-27T06:58:05.316Z,4.70
2022-09-27T07:00:50.898Z,5.13
2022-09-27T07:04:00.773Z,4.40
2022-09-27T07:07:00.721Z,4.63
2022-09-27T07:09:48.824Z,4.63
2022-09-27T07:12:32.648Z,4.90
2022-09-27T07:15:16.682Z,4.70
2022-09-27T07:18:01.671Z,4.57
2022-09-27T07:20:46.340Z,4.50
2022-09-27T07:23:31.742Z,4.30
2022-09-27T07:26:16.234Z,4.53
2022-09-27T07:29:00.855Z,6.10
2022-09-27T07:31:46.386Z,4.13
2022-09-27T07:34:30.270Z,5.78
2022-09-27T07:37:14.427Z,5.60
2022-09-27T07:39:59.927Z,4.80
2022-09-27T07:42:44.080Z,4.93
2022-09-27T07:45:28.217Z,4.65
2022-09-27T07:48:39.415Z,6.45
2022-09-27T07:51:46.285Z,4.07
2022-09-27T07:54:43.703Z,4.13
2022-09-27T07:57:45.057Z,4.07
2022-09-27T08:00:29.599Z,4.18
2022-09-27T08:03:16.302Z,4.60
2022-09-27T08:06:04.443Z,4.32
2022-09-27T08:08:48.723Z,4.10
2022-09-27T08:11:34.004Z,3.92
2022-09-27T08:14:21.752Z,4.07
2022-09-27T08:17:06.919Z,4.63
2022-09-27T08:20:11.095Z,4.55
2022-09-27T08:23:33.597Z,3.72
2022-09-27T08:26:32.318Z,3.65
2022-09-27T08:29:26.149Z,4.20
2022-09-27T08:32:13.297Z,4.43
2022-09-27T08:34:57.180Z,4.85
2022-09-27T08:37:41.073Z,4.70
2022-09-27T08:40:28.214Z,3.95
2022-09-27T08:43:20.831Z,3.78
2022-09-27T08:46:19.945Z,4.30
2022-09-27T08:49:08.812Z,4.20
2022-09-27T08:51:55.802Z,3.90
2022-09-27T08:54:41.167Z,3.80
2022-09-27T08:57:26.501Z,3.90
2022-09-27T09:00:13.987Z,3.90
2022-09-27T09:03:03.972Z,3.63
2022-09-27T09:06:05.475Z,3.80
2022-09-27T09:09:02.477Z,4.20
2022-09-27T09:12:18.628Z,4.15
2022-09-27T09:15:17.703Z,3.95
2022-09-27T09:18:23.381Z,4.15
2022-09-27T09:21:35.305Z,4.10
2022-09-27T09:24:33.848Z,3.78
2022-09-27T09:27:27.108Z,3.78
2022-09-27T09:30:23.437Z,3.88
2022-09-27T09:33:26.056Z,4.07
2022-09-27T09:36:21.338Z,3.80
2022-09-27T09:39:13.476Z,4.30
2022-09-27T09:42:08.824Z,3.58
2022-09-27T09:45:01.181Z,4.38
2022-09-27T09:47:56.022Z,3.78
2022-09-27T09:50:46.881Z,4.68
2022-09-27T09:53:44.290Z,4.07
2022-09-27T09:56:33.253Z,3.80
2022-09-27T09:59:24.563Z,3.75
2022-09-27T10:02:23.270Z,3.70
2022-09-27T10:05:09.084Z,3.60
2022-09-27T10:07:58.890Z,3.78
2022-09-27T10:10:43.148Z,4.05
2022-09-27T10:13:56.988Z,3.85
2022-09-27T10:16:43.301Z,3.90
2022-09-27T10:19:30.681Z,3.40
2022-09-27T10:22:25.146Z,3.83
2022-09-27T10:25:12.575Z,3.50
2022-09-27T10:28:03.528Z,3.40
2022-09-27T10:30:57.359Z,3.90
2022-09-27T10:33:55.187Z,3.78
2022-09-27T10:36:41.311Z,3.72
2022-09-27T10:39:27.682Z,3.60
2022-09-27T10:42:33.719Z,3.72
2022-09-27T10:45:28.164Z,3.70
2022-09-27T10:48:23.664Z,3.55
2022-09-27T10:51:25.062Z,3.25
2022-09-27T10:54:22.067Z,3.78
2022-09-27T10:57:17.615Z,3.28
2022-09-27T11:00:08.418Z,5.10
2022-09-27T11:02:55.694Z,3.78
2022-09-27T11:05:44.281Z,3.75
2022-09-27T11:08:32.244Z,3.75
2022-09-27T11:11:31.204Z,3.55
2022-09-27T11:14:23.199Z,3.67
2022-09-27T11:17:19.004Z,3.85
2022-09-27T11:20:26.230Z,3.55
2022-09-27T11:23:34.889Z,3.80
2022-09-27T11:26:38.674Z,4.75
2022-09-27T11:29:31.897Z,4.22
2022-09-27T11:33:07.111Z,5.10
2022-09-27T11:36:01.342Z,4.82
2022-09-27T11:39:02.901Z,4.75
2022-09-27T11:42:07.382Z,4.45
2022-09-27T11:45:34.263Z,4.50
2022-09-27T11:48:28.781Z,4.50
2022-09-27T11:51:26.874Z,4.45
2022-09-27T11:54:36.102Z,4.55
2022-09-27T11:57:26.535Z,4.15
2022-09-27T12:00:19.046Z,4.10
2022-09-27T12:03:47.890Z,3.97
2022-09-27T12:06:49.064Z,4.45
2022-09-27T12:09:37.510Z,4.70
2022-09-27T12:12:25.706Z,4.57
2022-09-27T12:15:17.088Z,4.57
2022-09-27T12:18:15.383Z,5.28
2022-09-27T12:21:03.160Z,4.85
2022-09-27T12:23:51.556Z,5.40
2022-09-27T12:26:56.446Z,5.25
2022-09-27T12:29:43.893Z,5.28
2022-09-27T12:32:33.309Z,5.35
2022-09-27T12:35:22.877Z,4.93
2022-09-27T12:38:15.118Z,4.95
2022-09-27T12:41:01.457Z,5.40
2022-09-27T12:43:54.865Z,5.00
2022-09-27T12:47:00.859Z,4.78
2022-09-27T12:49:52.544Z,5.13
2022-09-27T12:52:42.603Z,4.90
2022-09-27T12:55:55.699Z,4.47
2022-09-27T12:59:03.785Z,4.90
2022-09-27T13:02:28.355Z,4.53
2022-09-27T13:05:46.136Z,4.72
2022-09-27T13:09:04.657Z,4.88
2022-09-27T13:11:58.672Z,4.68
2022-09-27T13:14:51.838Z,5.63
2022-09-27T13:17:53.352Z,4.88
2022-09-27T13:21:00.307Z,4.57
2022-09-27T13:24:47.258Z,5.10
2022-09-27T13:27:51.563Z,5.47
2022-09-27T13:30:46.405Z,5.57
2022-09-27T13:33:41.604Z,6.32
2022-09-27T13:36:34.316Z,6.10
2022-09-27T13:39:25.794Z,6.10
2022-09-27T13:42:37.172Z,7.00
2022-09-27T13:45:27.233Z,6.47
2022-09-27T13:48:17.892Z,6.88
2022-09-27T13:51:06.342Z,6.43
2022-09-27T13:53:59.015Z,5.95
2022-09-27T13:56:54.322Z,5.38
2022-09-27T13:59:44.495Z,6.82
2022-09-27T14:02:59.169Z,6.65
2022-09-27T14:05:53.330Z,6.38
2022-09-27T14:08:44.727Z,5.80
2022-09-27T14:11:32.278Z,6.15
2022-09-27T14:14:20.910Z,6.63
2022-09-27T14:17:11.702Z,6.05
2022-09-27T14:19:57.543Z,6.43
2022-09-27T14:22:44.201Z,5.80
2022-09-27T14:25:28.562Z,6.80
2022-09-27T14:28:21.705Z,5.93
2022-09-27T14:31:17.895Z,6.18
2022-09-27T14:34:19.797Z,6.68
2022-09-27T14:37:23.731Z,5.97
2022-09-27T14:40:21.911Z,5.80
2022-09-27T14:43:06.746Z,5.68
2022-09-27T14:45:53.998Z,5.60
2022-09-27T14:48:39.296Z,6.03
2022-09-27T14:51:28.185Z,6.15
2022-09-27T14:54:22.266Z,5.80
2022-09-27T14:57:08.347Z,6.03
2022-09-27T14:59:52.131Z,6.32
2022-09-27T15:02:38.238Z,5.65
2022-09-27T15:05:24.700Z,5.70
2022-09-27T15:08:08.629Z,5.85
2022-09-27T15:10:54.659Z,5.55
2022-09-27T15:13:39.704Z,5.55
2022-09-27T15:16:25.453Z,6.25
2022-09-27T15:19:17.589Z,6.20
2022-09-27T15:22:33.041Z,6.00
2022-09-27T15:25:32.558Z,5.93
2022-09-27T15:28:20.778Z,6.47
2022-09-27T15:31:05.748Z,5.80
2022-09-27T15:33:56.208Z,4.88
2022-09-27T15:36:55.828Z,5.22
2022-09-27T15:39:41.106Z,5.53
2022-09-27T15:42:24.785Z,6.20
2022-09-27T15:45:29.097Z,5.60
2022-09-27T15:48:16.329Z,5.43
2022-09-27T15:51:01.258Z,4.65
2022-09-27T15:53:46.090Z,4.55
2022-09-27T15:56:29.860Z,4.30
2022-09-27T15:59:17.943Z,4.90
2022-09-27T16:02:08.174Z,4.60
2022-09-27T16:04:52.263Z,4.32
2022-09-27T16:07:36.293Z,4.20
2022-09-27T16:10:22.038Z,3.80
2022-09-27T16:13:05.818Z,4.60
2022-09-27T16:15:50.197Z,4.97
2022-09-27T16:18:35.410Z,5.35
2022-09-27T16:21:19.165Z,5.55
2022-09-27T16:24:06.160Z,5.03
2022-09-27T16:26:50.375Z,5.18
2022-09-27T16:29:34.150Z,5.35
2022-09-27T16:32:18.234Z,5.20
2022-09-27T16:35:03.453Z,4.93
2022-09-27T16:37:47.763Z,5.03
2022-09-27T16:40:32.153Z,5.32
2022-09-27T16:43:16.743Z,5.47
2022-09-27T16:46:09.111Z,5.47
2022-09-27T16:48:54.647Z,5.13
2022-09-27T16:51:57.299Z,5.45
2022-09-27T16:54:41.453Z,5.20
2022-09-27T16:57:25.423Z,4.82
2022-09-27T17:00:10.785Z,5.20
2022-09-27T17:02:55.034Z,5.28
2022-09-27T17:05:39.087Z,5.13
2022-09-27T17:08:27.271Z,5.03
2022-09-27T17:11:14.874Z,5.20
2022-09-27T17:13:59.404Z,5.18
2022-09-27T17:16:43.545Z,5.63
2022-09-27T17:19:28.321Z,5.13
2022-09-27T17:22:12.035Z,6.00
2022-09-27T17:24:57.246Z,4.47
2022-09-27T17:27:41.070Z,4.45
2022-09-27T17:30:26.247Z,4.32
2022-09-27T17:33:10.293Z,4.57
2022-09-27T17:36:02.111Z,4.43
2022-09-27T17:38:46.895Z,5.43
2022-09-27T17:41:37.557Z,4.40
2022-09-27T17:44:27.077Z,4.13
2022-09-27T17:47:29.026Z,3.42
2022-09-27T17:50:28.977Z,4.20
2022-09-27T17:53:12.998Z,4.10
2022-09-27T17:56:03.764Z,3.63
2022-09-27T17:58:49.974Z,3.65
2022-09-27T18:01:34.580Z,3.60
2022-09-27T18:04:20.733Z,4.05
2022-09-27T18:07:04.825Z,3.33
2022-09-27T18:09:50.213Z,2.95
2022-09-27T18:12:35.137Z,4.07
2022-09-27T18:15:22.045Z,3.15
2022-09-27T18:18:06.293Z,2.95
2022-09-27T18:20:50.160Z,2.97
2022-09-27T18:23:34.691Z,3.15
2022-09-27T18:26:20.216Z,2.75
2022-09-27T18:29:07.165Z,3.33
2022-09-27T18:31:52.418Z,2.80
2022-09-27T18:34:36.432Z,2.92
2022-09-27T18:37:20.520Z,3.05
2022-09-27T18:40:05.130Z,4.13
2022-09-27T18:42:49.156Z,3.60
2022-09-27T18:45:37.323Z,3.55
2022-09-27T18:48:22.814Z,3.67
2022-09-27T18:51:08.434Z,3.45
2022-09-27T18:53:57.418Z,3.47
2022-09-27T18:56:43.200Z,2.85
2022-09-27T18:59:28.974Z,3.35
2022-09-27T19:02:13.115Z,3.38
2022-09-27T19:04:58.886Z,3.10
2022-09-27T19:07:43.104Z,2.90
2022-09-27T19:10:27.244Z,3.90
2022-09-27T19:13:11.450Z,4.40
2022-09-27T19:15:57.000Z,4.10
2022-09-27T19:18:43.109Z,3.05
2022-09-27T19:21:30.570Z,2.75
2022-09-27T19:24:16.903Z,2.83
2022-09-27T19:27:00.611Z,3.20
2022-09-27T19:29:46.078Z,2.70
2022-09-27T19:32:29.845Z,3.30
2022-09-27T19:35:14.003Z,3.28
2022-09-27T19:37:59.351Z,2.50
2022-09-27T19:40:43.177Z,3.67
2022-09-27T19:43:27.046Z,4.45
2022-09-27T19:46:14.201Z,3.80
2022-09-27T19:48:58.268Z,3.30
2022-09-27T19:51:42.194Z,3.63
2022-09-27T19:54:27.408Z,3.42
2022-09-27T19:57:11.363Z,2.97
2022-09-27T19:59:55.323Z,2.50
2022-09-27T20:02:39.434Z,3.03
2022-09-27T20:05:23.692Z,3.72
2022-09-27T20:08:07.610Z,3.03
2022-09-27T20:10:58.168Z,4.30
2022-09-27T20:13:44.898Z,3.47
2022-09-27T20:16:29.375Z,3.08
2022-09-27T20:19:13.554Z,2.83
2022-09-27T20:21:57.780Z,2.78
2022-09-27T20:24:41.733Z,2.92
2022-09-27T20:27:26.842Z,2.47
2022-09-27T20:30:12.369Z,3.30
2022-09-27T20:33:09.962Z,3.40
2022-09-27T20:35:55.102Z,3.47
2022-09-27T20:38:39.124Z,3.08
2022-09-27T20:41:26.665Z,3.35
2022-09-27T20:44:13.795Z,3.40
2022-09-27T20:46:59.327Z,3.35
2022-09-27T20:49:43.173Z,3.03
2022-09-27T20:52:26.897Z,3.67
2022-09-27T20:55:11.876Z,3.80
2022-09-27T20:57:57.681Z,2.03
2022-09-27T21:00:43.185Z,1.95
2022-09-27T21:03:27.036Z,2.50
2022-09-27T21:06:13.023Z,2.60
2022-09-27T21:08:56.916Z,2.33
2022-09-27T21:11:40.695Z,2.00
2022-09-27T21:14:24.531Z,1.77
2022-09-27T21:17:10.216Z,2.43
2022-09-27T21:19:54.199Z,1.93
2022-09-27T21:22:38.477Z,1.70
2022-09-27T21:25:22.699Z,2.00
2022-09-27T21:28:06.569Z,1.80
2022-09-27T21:30:50.454Z,1.40
2022-09-27T21:33:36.248Z,1.53
2022-09-27T21:36:20.328Z,1.63
2022-09-27T21:39:04.870Z,1.90
2022-09-27T21:41:48.702Z,1.30
2022-09-27T21:44:32.461Z,1.90
2022-09-27T21:47:16.271Z,1.80
2022-09-27T21:50:01.506Z,1.97
2022-09-27T21:52:46.747Z,2.10
2022-09-27T21:55:30.560Z,2.30
2022-09-27T21:58:14.316Z,2.80
2022-09-27T22:00:58.034Z,2.47
2022-09-27T22:03:43.636Z,2.70
2022-09-27T22:06:30.722Z,2.67
2022-09-27T22:09:17.099Z,3.00
2022-09-27T22:12:01.080Z,2.63
2022-09-27T22:14:44.869Z,2.90
2022-09-27T22:17:28.979Z,3.87
2022-09-27T22:20:12.966Z,2.63
2022-09-27T22:22:58.530Z,3.40
2022-09-27T22:25:42.429Z,4.00
2022-09-27T22:28:27.090Z,4.57
2022-09-27T22:31:11.736Z,4.23
2022-09-27T22:33:57.983Z,3.63
2022-09-27T22:36:42.394Z,4.13
2022-09-27T22:39:27.894Z,4.00
2022-09-27T22:42:11.705Z,3.27
2022-09-27T22:44:55.579Z,4.33
2022-09-27T22:47:39.881Z,3.87
2022-09-27T22:50:23.998Z,4.20
2022-09-27T22:53:07.941Z,3.63
2022-09-27T22:56:04.350Z,4.00
2022-09-27T22:58:49.928Z,4.00
2022-09-27T23:01:34.178Z,4.00
2022-09-27T23:04:18.103Z,3.77
2022-09-27T23:07:02.030Z,3.90
2022-09-27T23:09:46.223Z,4.60
2022-09-27T23:12:32.202Z,4.83
2022-09-27T23:15:16.232Z,4.63
2022-09-27T23:18:00.517Z,3.83
2022-09-27T23:20:45.099Z,4.40
2022-09-27T23:23:29.164Z,3.73
2022-09-27T23:26:15.762Z,4.07
2022-09-27T23:29:02.757Z,4.03
2022-09-27T23:31:46.681Z,2.50
2022-09-27T23:34:30.587Z,2.20
2022-09-27T23:37:14.485Z,2.23
2022-09-27T23:39:58.461Z,2.50
2022-09-27T23:42:42.321Z,1.50
2022-09-27T23:45:28.742Z,2.13
2022-09-27T23:48:13.065Z,2.10
2022-09-27T23:50:57.483Z,1.40
2022-09-27T23:53:41.759Z,1.63
2022-09-27T23:56:26.248Z,2.10
2022-09-27T23:59:10.211Z,1.60
